Terminal Aerodrome Forecast
Issued by NWS Goodland, KS

Home | Current Version | Previous Version | Text Only | Print | Product List | Glossary On
Versions: 1 2 3 4 5 6 7 8 9 10 11 12
000
FTUS43 KGLD 220520
TAFGLD
TAF
KGLD 220520Z 2206/2306 04004KT P6SM SCT200
     FM221500 11010KT P6SM SCT050 SCT200
     FM222000 14010KT P6SM VCSH SCT050
     FM222200 08010G16KT P6SM VCTS BKN050CB
     FM230300 33010KT 6SM -SHRA BR BKN050=

USA.gov is the U.S. government's official web portal to all federal, state and local government web resources and services.